CPQ3 weather

Niagara Falls Heliport
Niagara Falls, Ontario, Canada

Public forecast

Using degrees Celsius for public forecast. Weather courtesy of forecast.io.

Closest aviation weather report (METAR) to Niagara Falls Heliport

Closest report is Niagara Falls International Airport, 5.7 nm (10.6 km) E. Retrieved 2019/10/21 08:53 UTC (15 minutes ago):

KIAG 210853Z AUTO 06003KT 8SM CLR 05/04 A3004 RMK AO2 SLP177 T00500039 53010

Closest aviation forecast (TAF) to Niagara Falls Heliport

Closest forecast is Niagara Falls International Airport, 5.7 nm (10.6 km) E. Retrieved 2019/10/21 06:54 UTC (2 hours ago):

TAF KIAG 210553Z 2106/2206 00000KT P6SM SKC TEMPO 2106/2108 5SM BR FM211200 10004KT P6SM BKN250 FM211500 10010KT P6SM BKN250 FM211800 10012G18KT P6SM BKN250 FM220200 14011G17KT P6SM OVC130 WS015/17040KT